sensor_id;sensor_type;location;lat;lon;timestamp;pressure;altitude;pressure_sealevel;temperature;humidity
35704;BME280;21820;51.112;13.762;2023-08-20T00:02:20;99703.22;;;26.26;61.69
35704;BME280;21820;51.112;13.762;2023-08-20T00:04:48;99704.22;;;26.25;62.44
35704;BME280;21820;51.112;13.762;2023-08-20T00:07:14;99704.88;;;26.27;62.31
35704;BME280;21820;51.112;13.762;2023-08-20T00:09:41;99698.94;;;26.25;62.32
35704;BME280;21820;51.112;13.762;2023-08-20T00:12:06;99695.47;;;26.25;61.55
35704;BME280;21820;51.112;13.762;2023-08-20T00:15:01;99705.84;;;26.26;63.85
35704;BME280;21820;51.112;13.762;2023-08-20T00:17:36;99698.78;;;26.27;61.76
35704;BME280;21820;51.112;13.762;2023-08-20T00:20:03;99692.03;;;26.24;62.09
35704;BME280;21820;51.112;13.762;2023-08-20T00:22:35;99703.06;;;26.28;61.89
35704;BME280;21820;51.112;13.762;2023-08-20T00:25:00;99696.97;;;26.27;61.54
35704;BME280;21820;51.112;13.762;2023-08-20T00:27:26;99702.25;;;26.27;61.82
35704;BME280;21820;51.112;13.762;2023-08-20T00:29:51;99697.63;;;26.29;61.47
35704;BME280;21820;51.112;13.762;2023-08-20T00:32:16;99704.72;;;26.29;61.76
35704;BME280;21820;51.112;13.762;2023-08-20T00:34:42;99702.25;;;26.27;61.38
35704;BME280;21820;51.112;13.762;2023-08-20T00:37:07;99703.22;;;26.26;61.85
35704;BME280;21820;51.112;13.762;2023-08-20T00:39:33;99704.88;;;26.27;62.11
35704;BME280;21820;51.112;13.762;2023-08-20T00:41:58;99702.25;;;26.27;61.40
35704;BME280;21820;51.112;13.762;2023-08-20T00:44:23;99709.16;;;26.28;61.68
35704;BME280;21820;51.112;13.762;2023-08-20T00:46:50;99706.69;;;26.27;61.82
35704;BME280;21820;51.112;13.762;2023-08-20T00:49:16;99707.53;;;26.27;61.71
35704;BME280;21820;51.112;13.762;2023-08-20T00:51:41;99700.59;;;26.26;61.87
35704;BME280;21820;51.112;13.762;2023-08-20T00:54:07;99704.06;;;26.27;62.00
35704;BME280;21820;51.112;13.762;2023-08-20T00:56:32;99705.84;;;26.26;61.71
35704;BME280;21820;51.112;13.762;2023-08-20T00:58:58;99689.44;;;26.16;62.31
35704;BME280;21820;51.112;13.762;2023-08-20T01:01:24;99710.16;;;26.27;61.95
35704;BME280;21820;51.112;13.762;2023-08-20T01:03:50;99707.53;;;26.27;62.19
35704;BME280;21820;51.112;13.762;2023-08-20T01:06:20;99707.53;;;26.27;62.09
35704;BME280;21820;51.112;13.762;2023-08-20T01:08:53;99707.34;;;26.29;62.55
35704;BME280;21820;51.112;13.762;2023-08-20T01:11:30;99687.41;;;26.18;62.53
35704;BME280;21820;51.112;13.762;2023-08-20T01:13:59;99710.81;;;26.29;61.63
35704;BME280;21820;51.112;13.762;2023-08-20T01:16:24;99712.78;;;26.27;62.31
35704;BME280;21820;51.112;13.762;2023-08-20T01:18:50;99710.84;;;26.21;61.45
35704;BME280;21820;51.112;13.762;2023-08-20T01:21:37;99727.44;;;26.30;63.63
35704;BME280;21820;51.112;13.762;2023-08-20T01:29:22;99739.16;;;26.27;61.86
35704;BME280;21820;51.112;13.762;2023-08-20T01:31:48;99746.06;;;26.28;61.70
35704;BME280;21820;51.112;13.762;2023-08-20T01:34:14;99744.41;;;26.27;62.08
35704;BME280;21820;51.112;13.762;2023-08-20T01:36:39;99734.84;;;26.18;61.99
35704;BME280;21820;51.112;13.762;2023-08-20T01:39:04;99748.88;;;26.27;62.20
35704;BME280;21820;51.112;13.762;2023-08-20T01:41:30;99744.41;;;26.27;62.30
35704;BME280;21820;51.112;13.762;2023-08-20T01:43:56;99753.16;;;26.28;62.51
35704;BME280;21820;51.112;13.762;2023-08-20T01:46:21;99749.69;;;26.27;61.98
35704;BME280;21820;51.112;13.762;2023-08-20T01:48:47;99751.31;;;26.28;62.50
35704;BME280;21820;51.112;13.762;2023-08-20T01:51:12;99754.97;;;26.27;61.83
35704;BME280;21820;51.112;13.762;2023-08-20T01:53:37;99758.25;;;26.29;61.90
35704;BME280;21820;51.112;13.762;2023-08-20T01:56:03;99763.53;;;26.29;61.98
35704;BME280;21820;51.112;13.762;2023-08-20T01:58:28;99760.25;;;26.27;61.84
35704;BME280;21820;51.112;13.762;2023-08-20T02:00:53;99765.16;;;26.30;62.28
35704;BME280;21820;51.112;13.762;2023-08-20T02:03:19;99763.53;;;26.29;61.96
35704;BME280;21820;51.112;13.762;2023-08-20T02:05:44;99766.34;;;26.28;62.33
35704;BME280;21820;51.112;13.762;2023-08-20T02:08:09;99761.88;;;26.28;61.77
35704;BME280;21820;51.112;13.762;2023-08-20T02:10:35;99757.59;;;26.19;61.98
35704;BME280;21820;51.112;13.762;2023-08-20T02:13:00;99768.16;;;26.27;61.52
35704;BME280;21820;51.112;13.762;2023-08-20T02:15:26;99776.88;;;26.28;62.22
35704;BME280;21820;51.112;13.762;2023-08-20T02:17:51;99774.09;;;26.29;62.28
35704;BME280;21820;51.112;13.762;2023-08-20T02:20:16;99759.06;;;26.22;61.50
35704;BME280;21820;51.112;13.762;2023-08-20T02:22:42;99777.53;;;26.30;61.84
35704;BME280;21820;51.112;13.762;2023-08-20T02:25:08;99776.88;;;26.28;62.01
35704;BME280;21820;51.112;13.762;2023-08-20T02:27:33;99780.31;;;26.28;61.62
35704;BME280;21820;51.112;13.762;2023-08-20T02:29:59;99766.19;;;26.21;62.05
35704;BME280;21820;51.112;13.762;2023-08-20T02:32:24;99788.91;;;26.30;61.57
35704;BME280;21820;51.112;13.762;2023-08-20T02:34:52;99776.38;;;26.24;62.70
35704;BME280;21820;51.112;13.762;2023-08-20T02:37:18;99788.22;;;26.28;62.06
35704;BME280;21820;51.112;13.762;2023-08-20T02:39:44;99773.09;;;26.22;61.53
35704;BME280;21820;51.112;13.762;2023-08-20T02:42:09;99780.31;;;26.28;61.79
35704;BME280;21820;51.112;13.762;2023-08-20T02:44:34;99784.63;;;26.29;61.85
35704;BME280;21820;51.112;13.762;2023-08-20T02:47:00;99788.91;;;26.30;62.12
35704;BME280;21820;51.112;13.762;2023-08-20T02:49:25;99762.06;;;26.19;62.17
35704;BME280;21820;51.112;13.762;2023-08-20T02:51:50;99772.41;;;26.28;61.94
35704;BME280;21820;51.112;13.762;2023-08-20T02:54:16;99782.97;;;26.28;62.08
35704;BME280;21820;51.112;13.762;2023-08-20T02:56:41;99780.16;;;26.30;61.69
35704;BME280;21820;51.112;13.762;2023-08-20T02:59:07;99776.72;;;26.29;61.52
35704;BME280;21820;51.112;13.762;2023-08-20T03:01:32;99778.34;;;26.30;62.43
35704;BME280;21820;51.112;13.762;2023-08-20T03:03:57;99774.88;;;26.30;61.65
35704;BME280;21820;51.112;13.762;2023-08-20T03:06:23;99775.72;;;26.30;61.87
35704;BME280;21820;51.112;13.762;2023-08-20T03:08:48;99767.97;;;26.29;62.09
35704;BME280;21820;51.112;13.762;2023-08-20T03:11:13;99778.19;;;26.32;61.89
35704;BME280;21820;51.112;13.762;2023-08-20T03:13:39;99781.00;;;26.30;61.82
35704;BME280;21820;51.112;13.762;2023-08-20T03:16:04;99780.16;;;26.30;62.37
35704;BME280;21820;51.112;13.762;2023-08-20T03:18:29;99778.53;;;26.29;62.36
35704;BME280;21820;51.112;13.762;2023-08-20T03:20:55;99779.34;;;26.29;62.07
35704;BME280;21820;51.112;13.762;2023-08-20T03:23:22;99787.25;;;26.29;62.20
35704;BME280;21820;51.112;13.762;2023-08-20T03:25:47;99794.84;;;26.32;62.11
35704;BME280;21820;51.112;13.762;2023-08-20T03:28:12;99786.25;;;26.30;61.91
35704;BME280;21820;51.112;13.762;2023-08-20T03:30:38;99790.69;;;26.30;61.48
35704;BME280;21820;51.112;13.762;2023-08-20T03:33:03;99786.25;;;26.30;62.30
35704;BME280;21820;51.112;13.762;2023-08-20T03:35:29;99789.56;;;26.32;61.46
35704;BME280;21820;51.112;13.762;2023-08-20T03:37:54;99792.19;;;26.32;62.02
35704;BME280;21820;51.112;13.762;2023-08-20T03:40:19;99794.16;;;26.30;61.43
35704;BME280;21820;51.112;13.762;2023-08-20T03:42:45;99792.38;;;26.31;61.61
35704;BME280;21820;51.112;13.762;2023-08-20T03:45:10;99800.44;;;26.29;61.53
35704;BME280;21820;51.112;13.762;2023-08-20T03:47:36;99798.44;;;26.31;61.85
35704;BME280;21820;51.112;13.762;2023-08-20T03:50:02;99796.81;;;26.30;61.65
35704;BME280;21820;51.112;13.762;2023-08-20T03:52:27;99803.09;;;26.29;62.06
35704;BME280;21820;51.112;13.762;2023-08-20T03:54:53;99793.84;;;26.25;62.06
35704;BME280;21820;51.112;13.762;2023-08-20T03:57:18;99797.81;;;26.29;61.74
35704;BME280;21820;51.112;13.762;2023-08-20T03:59:43;99796.81;;;26.22;62.51
35704;BME280;21820;51.112;13.762;2023-08-20T04:02:10;99829.09;;;26.32;62.29
35704;BME280;21820;51.112;13.762;2023-08-20T04:04:36;99829.44;;;26.29;62.30
35704;BME280;21820;51.112;13.762;2023-08-20T04:07:02;99830.06;;;26.31;61.93
35704;BME280;21820;51.112;13.762;2023-08-20T04:09:27;99826.81;;;26.29;61.78
35704;BME280;21820;51.112;13.762;2023-08-20T04:11:53;99826.47;;;26.32;62.34
35704;BME280;21820;51.112;13.762;2023-08-20T04:14:18;99824.81;;;26.31;61.66
35704;BME280;21820;51.112;13.762;2023-08-20T04:16:44;99823.66;;;26.34;61.96
35704;BME280;21820;51.112;13.762;2023-08-20T04:19:09;99833.72;;;26.30;61.83
35704;BME280;21820;51.112;13.762;2023-08-20T04:21:34;99830.06;;;26.31;61.91
35704;BME280;21820;51.112;13.762;2023-08-20T04:24:00;99837.00;;;26.32;62.06
35704;BME280;21820;51.112;13.762;2023-08-20T04:26:25;99845.09;;;26.31;62.05
35704;BME280;21820;51.112;13.762;2023-08-20T04:28:50;99854.81;;;26.30;61.79
35704;BME280;21820;51.112;13.762;2023-08-20T04:31:16;99853.97;;;26.30;61.96
35704;BME280;21820;51.112;13.762;2023-08-20T04:33:41;99849.69;;;26.29;62.18
35704;BME280;21820;51.112;13.762;2023-08-20T04:36:06;99851.34;;;26.30;62.14
35704;BME280;21820;51.112;13.762;2023-08-20T04:38:32;99865.34;;;26.30;62.11
35704;BME280;21820;51.112;13.762;2023-08-20T04:40:57;99853.97;;;26.30;62.54
35704;BME280;21820;51.112;13.762;2023-08-20T04:43:22;99861.72;;;26.31;62.00
35704;BME280;21820;51.112;13.762;2023-08-20T04:45:49;99852.16;;;26.22;61.90
35704;BME280;21820;51.112;13.762;2023-08-20T04:48:15;99874.75;;;26.33;61.42
35704;BME280;21820;51.112;13.762;2023-08-20T04:50:40;99862.38;;;26.25;62.32
35704;BME280;21820;51.112;13.762;2023-08-20T04:53:05;99868.97;;;26.29;62.20
35704;BME280;21820;51.112;13.762;2023-08-20T04:55:31;99867.97;;;26.30;61.95
35704;BME280;21820;51.112;13.762;2023-08-20T04:57:56;99865.34;;;26.30;62.04
35704;BME280;21820;51.112;13.762;2023-08-20T05:00:22;99872.25;;;26.31;62.23
35704;BME280;21820;51.112;13.762;2023-08-20T05:02:47;99872.25;;;26.31;62.00
35704;BME280;21820;51.112;13.762;2023-08-20T05:05:13;99877.53;;;26.31;61.79
35704;BME280;21820;51.112;13.762;2023-08-20T05:07:38;99874.88;;;26.31;62.36
35704;BME280;21820;51.112;13.762;2023-08-20T05:10:04;99876.72;;;26.31;61.76
35704;BME280;21820;51.112;13.762;2023-08-20T05:12:30;99880.16;;;26.31;61.66
35704;BME280;21820;51.112;13.762;2023-08-20T05:14:55;99884.47;;;26.32;61.54
35704;BME280;21820;51.112;13.762;2023-08-20T05:17:20;99882.00;;;26.31;61.71
35704;BME280;21820;51.112;13.762;2023-08-20T05:19:46;99883.81;;;26.30;62.08
35704;BME280;21820;51.112;13.762;2023-08-20T05:22:11;99891.72;;;26.30;62.43
35704;BME280;21820;51.112;13.762;2023-08-20T05:24:37;99890.06;;;26.29;62.46
35704;BME280;21820;51.112;13.762;2023-08-20T05:27:14;99891.72;;;26.30;64.11
35704;BME280;21820;51.112;13.762;2023-08-20T05:29:40;99896.66;;;26.33;62.04
35704;BME280;21820;51.112;13.762;2023-08-20T05:32:06;99879.19;;;26.24;61.81
35704;BME280;21820;51.112;13.762;2023-08-20T05:34:32;99908.19;;;26.32;62.02
35704;BME280;21820;51.112;13.762;2023-08-20T05:36:58;99912.47;;;26.33;61.85
35704;BME280;21820;51.112;13.762;2023-08-20T05:39:23;99918.91;;;26.31;62.12
35704;BME280;21820;51.112;13.762;2023-08-20T05:41:51;99913.31;;;26.34;62.30
35704;BME280;21820;51.112;13.762;2023-08-20T05:44:16;99913.63;;;26.31;62.62
35704;BME280;21820;51.112;13.762;2023-08-20T05:46:43;99923.00;;;26.33;61.65
35704;BME280;21820;51.112;13.762;2023-08-20T05:49:08;99919.72;;;26.31;65.11
35704;BME280;21820;51.112;13.762;2023-08-20T05:51:33;99922.22;;;26.33;61.58
35704;BME280;21820;51.112;13.762;2023-08-20T05:53:59;99925.81;;;26.32;61.88
35704;BME280;21820;51.112;13.762;2023-08-20T05:56:24;99923.34;;;26.30;61.55
35704;BME280;21820;51.112;13.762;2023-08-20T05:58:49;99925.81;;;26.32;62.05
35704;BME280;21820;51.112;13.762;2023-08-20T06:01:15;99930.25;;;26.31;61.91
35704;BME280;21820;51.112;13.762;2023-08-20T06:03:40;99922.00;;;26.26;62.04
35704;BME280;21820;51.112;13.762;2023-08-20T06:06:05;99935.53;;;26.31;62.45
35704;BME280;21820;51.112;13.762;2023-08-20T06:08:31;99930.41;;;26.30;61.97
35704;BME280;21820;51.112;13.762;2023-08-20T06:10:56;99929.28;;;26.32;61.89
35704;BME280;21820;51.112;13.762;2023-08-20T06:13:21;99930.25;;;26.31;61.43
35704;BME280;21820;51.112;13.762;2023-08-20T06:15:47;99946.06;;;26.31;61.81
35704;BME280;21820;51.112;13.762;2023-08-20T06:18:12;99935.53;;;26.31;61.93
35704;BME280;21820;51.112;13.762;2023-08-20T06:20:38;99938.16;;;26.31;61.90
35704;BME280;21820;51.112;13.762;2023-08-20T06:23:03;99947.75;;;26.32;62.01
35704;BME280;21820;51.112;13.762;2023-08-20T06:25:29;99945.09;;;26.32;61.88
35704;BME280;21820;51.112;13.762;2023-08-20T06:27:54;99946.06;;;26.31;61.69
35704;BME280;21820;51.112;13.762;2023-08-20T06:30:19;99945.09;;;26.32;62.35
35704;BME280;21820;51.112;13.762;2023-08-20T06:32:45;99948.72;;;26.31;62.42
35704;BME280;21820;51.112;13.762;2023-08-20T06:35:10;99931.25;;;26.22;62.17
35704;BME280;21820;51.112;13.762;2023-08-20T06:37:36;99924.00;;;26.24;61.94
35704;BME280;21820;51.112;13.762;2023-08-20T06:40:01;99934.56;;;26.32;61.93
35704;BME280;21820;51.112;13.762;2023-08-20T06:42:27;99940.50;;;26.34;62.28
35704;BME280;21820;51.112;13.762;2023-08-20T06:44:52;99940.66;;;26.33;61.86
35704;BME280;21820;51.112;13.762;2023-08-20T06:47:17;99931.25;;;26.30;61.85
35704;BME280;21820;51.112;13.762;2023-08-20T06:49:43;99934.53;;;26.24;61.65
35704;BME280;21820;51.112;13.762;2023-08-20T06:52:08;99949.72;;;26.30;62.33
35704;BME280;21820;51.112;13.762;2023-08-20T06:54:34;99935.53;;;26.31;62.32
35704;BME280;21820;51.112;13.762;2023-08-20T06:57:00;99951.34;;;26.31;62.16
35704;BME280;21820;51.112;13.762;2023-08-20T06:59:25;99952.00;;;26.33;62.27
35704;BME280;21820;51.112;13.762;2023-08-20T07:01:50;99952.00;;;26.33;62.26
35704;BME280;21820;51.112;13.762;2023-08-20T07:04:16;99958.28;;;26.32;62.22
35704;BME280;21820;51.112;13.762;2023-08-20T07:06:41;99961.75;;;26.33;61.82
35704;BME280;21820;51.112;13.762;2023-08-20T07:09:07;99967.16;;;26.31;61.98
35704;BME280;21820;51.112;13.762;2023-08-20T07:11:32;99973.25;;;26.32;62.04
35704;BME280;21820;51.112;13.762;2023-08-20T07:13:57;99965.19;;;26.25;61.80
35704;BME280;21820;51.112;13.762;2023-08-20T07:16:22;99986.59;;;26.30;62.52
35704;BME280;21820;51.112;13.762;2023-08-20T07:18:48;99983.97;;;26.30;61.90
35704;BME280;21820;51.112;13.762;2023-08-20T07:21:13;99981.34;;;26.30;62.14
35704;BME280;21820;51.112;13.762;2023-08-20T07:23:39;99981.19;;;26.32;61.78
35704;BME280;21820;51.112;13.762;2023-08-20T07:26:09;99983.81;;;26.32;63.10
35704;BME280;21820;51.112;13.762;2023-08-20T07:28:35;99982.97;;;26.31;62.00
35704;BME280;21820;51.112;13.762;2023-08-20T07:31:20;99993.53;;;26.31;62.07
35704;BME280;21820;51.112;13.762;2023-08-20T07:33:46;99991.56;;;26.33;62.21
35704;BME280;21820;51.112;13.762;2023-08-20T07:36:13;99979.38;;;26.32;62.13
35704;BME280;21820;51.112;13.762;2023-08-20T07:38:39;99986.28;;;26.33;62.21
35704;BME280;21820;51.112;13.762;2023-08-20T07:41:06;99988.25;;;26.31;61.64
35704;BME280;21820;51.112;13.762;2023-08-20T07:43:32;99984.13;;;26.29;62.15
35704;BME280;21820;51.112;13.762;2023-08-20T07:45:57;99993.53;;;26.31;62.11
35704;BME280;21820;51.112;13.762;2023-08-20T07:48:22;99989.91;;;26.32;61.93
35704;BME280;21820;51.112;13.762;2023-08-20T07:50:48;99987.13;;;26.34;61.96
35704;BME280;21820;51.112;13.762;2023-08-20T07:53:13;99986.28;;;26.33;61.56
35704;BME280;21820;51.112;13.762;2023-08-20T07:55:39;99984.66;;;26.32;61.99
35704;BME280;21820;51.112;13.762;2023-08-20T07:58:04;99982.97;;;26.31;62.01
35704;BME280;21820;51.112;13.762;2023-08-20T08:00:29;99984.66;;;26.32;62.13
35704;BME280;21820;51.112;13.762;2023-08-20T08:02:55;99979.03;;;26.27;62.12
35704;BME280;21820;51.112;13.762;2023-08-20T08:05:20;99979.38;;;26.32;62.07
35704;BME280;21820;51.112;13.762;2023-08-20T08:07:45;99987.28;;;26.32;62.01
35704;BME280;21820;51.112;13.762;2023-08-20T08:10:11;99994.34;;;26.32;61.73
35704;BME280;21820;51.112;13.762;2023-08-20T08:12:36;99996.84;;;26.33;61.70
35704;BME280;21820;51.112;13.762;2023-08-20T08:15:01;99995.19;;;26.32;62.03
35704;BME280;21820;51.112;13.762;2023-08-20T08:17:27;99993.50;;;26.23;62.15
35704;BME280;21820;51.112;13.762;2023-08-20T08:19:52;100004.91;;;26.32;62.25
35704;BME280;21820;51.112;13.762;2023-08-20T08:22:20;100009.84;;;26.35;61.91
35704;BME280;21820;51.112;13.762;2023-08-20T08:24:45;100012.66;;;26.33;61.56
35704;BME280;21820;51.112;13.762;2023-08-20T08:27:10;100015.28;;;26.33;61.94
35704;BME280;21820;51.112;13.762;2023-08-20T08:29:36;100011.00;;;26.32;62.27
35704;BME280;21820;51.112;13.762;2023-08-20T08:32:01;100019.75;;;26.33;62.25
35704;BME280;21820;51.112;13.762;2023-08-20T08:34:26;100018.91;;;26.32;62.02
35704;BME280;21820;51.112;13.762;2023-08-20T08:36:52;100025.81;;;26.33;62.19
35704;BME280;21820;51.112;13.762;2023-08-20T08:39:17;100027.78;;;26.31;61.98
35704;BME280;21820;51.112;13.762;2023-08-20T08:41:43;100025.16;;;26.31;61.99
35704;BME280;21820;51.112;13.762;2023-08-20T08:44:10;100017.25;;;26.31;62.06
35704;BME280;21820;51.112;13.762;2023-08-20T08:46:38;100021.56;;;26.32;61.80
35704;BME280;21820;51.112;13.762;2023-08-20T08:49:03;100025.81;;;26.33;61.99
35704;BME280;21820;51.112;13.762;2023-08-20T08:51:30;100025.03;;;26.33;62.39
35704;BME280;21820;51.112;13.762;2023-08-20T08:53:56;100031.94;;;26.34;62.05
35704;BME280;21820;51.112;13.762;2023-08-20T08:56:21;100046.75;;;26.35;61.44
35704;BME280;21820;51.112;13.762;2023-08-20T08:58:47;100022.50;;;26.23;61.88
35704;BME280;21820;51.112;13.762;2023-08-20T09:01:13;100044.28;;;26.33;62.02
35704;BME280;21820;51.112;13.762;2023-08-20T09:03:38;100048.75;;;26.33;62.28
35704;BME280;21820;51.112;13.762;2023-08-20T09:06:08;100041.66;;;26.33;63.21
35704;BME280;21820;51.112;13.762;2023-08-20T09:08:34;100052.03;;;26.35;62.38
35704;BME280;21820;51.112;13.762;2023-08-20T09:11:01;100045.28;;;26.32;61.56
35704;BME280;21820;51.112;13.762;2023-08-20T09:15:58;100046.91;;;26.33;61.95
35704;BME280;21820;51.112;13.762;2023-08-20T09:18:23;100054.84;;;26.33;61.91
35704;BME280;21820;51.112;13.762;2023-08-20T09:20:49;100047.09;;;26.32;61.70
35704;BME280;21820;51.112;13.762;2023-08-20T09:23:15;100047.09;;;26.32;61.98
35704;BME280;21820;51.112;13.762;2023-08-20T09:25:41;100055.81;;;26.32;62.45
35704;BME280;21820;51.112;13.762;2023-08-20T09:28:06;100043.59;;;26.23;62.08
35704;BME280;21820;51.112;13.762;2023-08-20T09:30:32;100060.09;;;26.33;62.18
35704;BME280;21820;51.112;13.762;2023-08-20T09:33:06;100073.97;;;26.35;63.41
35704;BME280;21820;51.112;13.762;2023-08-20T09:35:31;100071.50;;;26.34;61.84
35704;BME280;21820;51.112;13.762;2023-08-20T09:38:00;100058.28;;;26.26;62.72
35704;BME280;21820;51.112;13.762;2023-08-20T09:40:27;100058.47;;;26.32;62.76
35704;BME280;21820;51.112;13.762;2023-08-20T09:42:53;100053.81;;;26.26;62.15
35704;BME280;21820;51.112;13.762;2023-08-20T09:45:20;100062.91;;;26.32;62.21
35704;BME280;21820;51.112;13.762;2023-08-20T09:47:48;100060.94;;;26.34;62.42
35704;BME280;21820;51.112;13.762;2023-08-20T09:50:17;100064.41;;;26.34;62.55
35704;BME280;21820;51.112;13.762;2023-08-20T09:53:03;100063.41;;;26.35;63.88
35704;BME280;21820;51.112;13.762;2023-08-20T09:55:33;100066.22;;;26.34;63.07
35704;BME280;21820;51.112;13.762;2023-08-20T09:58:01;100061.94;;;26.33;62.31
35704;BME280;21820;51.112;13.762;2023-08-20T10:00:27;100060.94;;;26.34;61.93
35704;BME280;21820;51.112;13.762;2023-08-20T10:02:53;100067.03;;;26.34;62.13
35704;BME280;21820;51.112;13.762;2023-08-20T10:05:19;100059.94;;;26.35;62.07
35704;BME280;21820;51.112;13.762;2023-08-20T10:07:46;100061.78;;;26.34;62.11
35704;BME280;21820;51.112;13.762;2023-08-20T10:10:12;100053.69;;;26.36;61.46
35704;BME280;21820;51.112;13.762;2023-08-20T10:12:39;100034.72;;;26.24;62.17
35704;BME280;21820;51.112;13.762;2023-08-20T10:15:07;100044.28;;;26.33;62.09
35704;BME280;21820;51.112;13.762;2023-08-20T10:17:33;100043.97;;;26.36;62.02
35704;BME280;21820;51.112;13.762;2023-08-20T10:20:01;100043.16;;;26.36;61.91
35704;BME280;21820;51.112;13.762;2023-08-20T10:22:33;100034.56;;;26.34;62.73
35704;BME280;21820;51.112;13.762;2023-08-20T10:24:59;100033.75;;;26.33;61.94
35704;BME280;21820;51.112;13.762;2023-08-20T10:27:28;100031.09;;;26.33;61.97
35704;BME280;21820;51.112;13.762;2023-08-20T10:29:56;100031.78;;;26.35;62.06
35704;BME280;21820;51.112;13.762;2023-08-20T10:35:27;100025.81;;;26.33;62.27
35704;BME280;21820;51.112;13.762;2023-08-20T10:38:02;100014.63;;;26.31;63.68
35704;BME280;21820;51.112;13.762;2023-08-20T10:44:08;100019.59;;;26.34;64.04
35704;BME280;21820;51.112;13.762;2023-08-20T10:46:13;100021.22;;;26.35;61.58
35704;BME280;21820;51.112;13.762;2023-08-20T10:48:40;100015.28;;;26.33;61.82
35704;BME280;21820;51.112;13.762;2023-08-20T10:51:14;100013.66;;;26.32;63.82
35704;BME280;21820;51.112;13.762;2023-08-20T10:53:41;100011.00;;;26.32;62.44
35704;BME280;21820;51.112;13.762;2023-08-20T10:56:17;100016.28;;;26.32;64.56
35704;BME280;21820;51.112;13.762;2023-08-20T10:58:46;100017.25;;;26.31;63.09
35704;BME280;21820;51.112;13.762;2023-08-20T11:01:20;99998.44;;;26.26;63.79
35704;BME280;21820;51.112;13.762;2023-08-20T11:03:46;100003.09;;;26.32;62.04
35704;BME280;21820;51.112;13.762;2023-08-20T11:06:14;100007.22;;;26.35;62.02
35704;BME280;21820;51.112;13.762;2023-08-20T11:08:39;100009.03;;;26.34;61.58
35704;BME280;21820;51.112;13.762;2023-08-20T11:11:05;100007.53;;;26.32;62.85
35704;BME280;21820;51.112;13.762;2023-08-20T11:13:34;100017.91;;;26.33;63.10
35704;BME280;21820;51.112;13.762;2023-08-20T11:16:01;100012.47;;;26.35;62.18
35704;BME280;21820;51.112;13.762;2023-08-20T11:18:27;100003.78;;;26.34;62.36
35704;BME280;21820;51.112;13.762;2023-08-20T11:20:54;100006.41;;;26.34;61.97
35704;BME280;21820;51.112;13.762;2023-08-20T11:23:20;100004.75;;;26.33;62.28
35704;BME280;21820;51.112;13.762;2023-08-20T11:25:46;100007.38;;;26.33;61.64
35704;BME280;21820;51.112;13.762;2023-08-20T11:28:12;100002.09;;;26.33;62.29
35704;BME280;21820;51.112;13.762;2023-08-20T11:30:38;100008.03;;;26.35;61.98
35704;BME280;21820;51.112;13.762;2023-08-20T11:33:03;99989.06;;;26.24;61.89
35704;BME280;21820;51.112;13.762;2023-08-20T11:35:29;99998.50;;;26.34;62.16
35704;BME280;21820;51.112;13.762;2023-08-20T11:37:54;99996.66;;;26.35;61.91
35704;BME280;21820;51.112;13.762;2023-08-20T11:40:21;99999.31;;;26.35;61.63
35704;BME280;21820;51.112;13.762;2023-08-20T11:42:47;99989.91;;;26.32;62.01
35704;BME280;21820;51.112;13.762;2023-08-20T11:45:12;99995.88;;;26.34;62.18
35704;BME280;21820;51.112;13.762;2023-08-20T11:47:41;99991.56;;;26.33;63.15
35704;BME280;21820;51.112;13.762;2023-08-20T11:50:08;99993.22;;;26.34;62.01
35704;BME280;21820;51.112;13.762;2023-08-20T11:52:33;99988.91;;;26.33;64.24
35704;BME280;21820;51.112;13.762;2023-08-20T11:55:00;99989.44;;;26.37;62.13
35704;BME280;21820;51.112;13.762;2023-08-20T11:57:26;99989.75;;;26.34;62.03
35704;BME280;21820;51.112;13.762;2023-08-20T11:59:53;99980.03;;;26.34;61.88
35704;BME280;21820;51.112;13.762;2023-08-20T12:02:25;99979.38;;;26.32;64.24
35704;BME280;21820;51.112;13.762;2023-08-20T12:04:51;99976.75;;;26.32;62.06
35704;BME280;21820;51.112;13.762;2023-08-20T12:07:16;99980.84;;;26.35;62.15
35704;BME280;21820;51.112;13.762;2023-08-20T12:09:42;99976.75;;;26.32;62.15
35704;BME280;21820;51.112;13.762;2023-08-20T12:12:08;99977.41;;;26.34;62.16
35704;BME280;21820;51.112;13.762;2023-08-20T12:14:34;99980.03;;;26.34;62.40
35704;BME280;21820;51.112;13.762;2023-08-20T12:17:00;99962.56;;;26.33;62.02
35704;BME280;21820;51.112;13.762;2023-08-20T12:19:25;99955.66;;;26.32;61.94
35704;BME280;21820;51.112;13.762;2023-08-20T12:21:51;99965.88;;;26.35;62.10
35704;BME280;21820;51.112;13.762;2023-08-20T12:24:17;99955.47;;;26.34;61.89
35704;BME280;21820;51.112;13.762;2023-08-20T12:26:44;99956.16;;;26.36;61.42
35704;BME280;21820;51.112;13.762;2023-08-20T12:29:10;99960.59;;;26.35;62.08
35704;BME280;21820;51.112;13.762;2023-08-20T12:31:35;99962.22;;;26.36;62.22
35704;BME280;21820;51.112;13.762;2023-08-20T12:34:01;99948.38;;;26.26;62.15
35704;BME280;21820;51.112;13.762;2023-08-20T12:36:27;99959.59;;;26.36;61.83
35704;BME280;21820;51.112;13.762;2023-08-20T12:38:52;99963.22;;;26.35;62.24
35704;BME280;21820;51.112;13.762;2023-08-20T12:41:19;99959.59;;;26.36;61.62
35704;BME280;21820;51.112;13.762;2023-08-20T12:43:44;99965.19;;;26.33;65.55
35704;BME280;21820;51.112;13.762;2023-08-20T12:46:09;99964.88;;;26.36;61.86
35704;BME280;21820;51.112;13.762;2023-08-20T12:48:35;99964.88;;;26.36;62.15
35704;BME280;21820;51.112;13.762;2023-08-20T12:51:04;99961.75;;;26.33;62.04
35704;BME280;21820;51.112;13.762;2023-08-20T12:53:29;99956.97;;;26.36;61.75
35704;BME280;21820;51.112;13.762;2023-08-20T12:55:54;99955.31;;;26.35;62.26
35704;BME280;21820;51.112;13.762;2023-08-20T12:58:20;99952.69;;;26.35;62.22